Time;durP1;ratioP1;P1;durP2;ratioP2;P2;SDS_P1;SDS_P2;PMS_P1;PMS_P2;Temp;Humidity;BMP_temperature;BMP_pressure;BME280_temperature;BME280_humidity;BME280_pressure;Samples;Min_cycle;Max_cycle;Signal;HPM_P1;HPM_P2
2022/04/24 00:01:11;;;;;;;18.85;15.57;;;12.00;75.50;;;;;;5112155;28;20202;-59
2022/04/24 00:03:38;;;;;;;16.00;14.05;;;12.00;75.50;;;;;;5113310;28;20699;-58
2022/04/24 00:06:06;;;;;;;18.45;15.30;;;12.10;75.30;;;;;;5113309;28;20646;-59
2022/04/24 00:08:34;;;;;;;18.17;14.93;;;12.10;75.30;;;;;;5113410;28;20650;-59
2022/04/24 00:11:01;;;;;;;20.02;15.50;;;12.20;75.00;;;;;;5113377;28;20203;-59
2022/04/24 00:13:31;;;;;;;18.23;14.70;;;12.20;75.00;;;;;;5113155;28;20212;-58
2022/04/24 00:15:58;;;;;;;18.05;15.60;;;12.20;75.00;;;;;;5111968;28;20200;-58
2022/04/24 00:18:25;;;;;;;17.95;15.10;;;12.20;74.90;;;;;;5113340;28;20204;-58
2022/04/24 00:20:52;;;;;;;17.52;15.20;;;12.20;74.70;;;;;;5113143;28;20282;-58
2022/04/24 00:23:19;;;;;;;19.65;15.55;;;12.20;74.60;;;;;;5113447;28;20581;-58
2022/04/24 00:25:47;;;;;;;22.48;15.52;;;12.20;74.70;;;;;;5113092;28;20246;-58
2022/04/24 00:28:14;;;;;;;18.35;15.35;;;12.20;74.70;;;;;;5113329;28;20745;-58
2022/04/24 00:30:41;;;;;;;19.63;16.83;;;12.20;74.90;;;;;;5111888;28;20195;-59
2022/04/24 00:33:08;;;;;;;19.10;15.90;;;12.10;75.00;;;;;;5113014;28;20302;-59
2022/04/24 00:35:35;;;;;;;18.67;16.02;;;12.20;74.80;;;;;;5113236;28;20294;-58
2022/04/24 00:38:02;;;;;;;19.17;15.48;;;12.10;75.10;;;;;;5112922;28;20206;-58
2022/04/24 00:40:29;;;;;;;20.27;16.80;;;12.10;75.00;;;;;;5113004;28;20196;-59
2022/04/24 00:42:57;;;;;;;19.50;16.42;;;12.10;75.00;;;;;;5113093;28;20206;-58
2022/04/24 00:45:24;;;;;;;18.90;16.60;;;12.20;74.90;;;;;;5111795;28;20286;-58
2022/04/24 00:47:51;;;;;;;20.88;16.50;;;12.10;75.00;;;;;;5112950;28;20227;-58
2022/04/24 00:50:19;;;;;;;22.08;16.73;;;12.10;74.80;;;;;;5112891;28;20302;-59
2022/04/24 00:52:47;;;;;;;19.52;15.77;;;12.00;75.00;;;;;;5112808;28;20196;-58
2022/04/24 00:55:14;;;;;;;17.77;15.88;;;12.10;75.00;;;;;;5112994;28;20207;-59
2022/04/24 00:57:42;;;;;;;21.10;15.98;;;12.10;75.10;;;;;;5112991;28;20231;-59
2022/04/24 01:00:12;;;;;;;21.52;16.73;;;12.10;75.00;;;;;;5111497;28;20666;-58
2022/04/24 01:02:39;;;;;;;18.55;15.70;;;12.00;75.40;;;;;;5114368;28;20576;-58
2022/04/24 01:05:09;;;;;;;24.65;18.05;;;11.80;75.70;;;;;;5116644;28;20231;-58
2022/04/24 01:07:36;;;;;;;23.08;17.50;;;11.80;75.70;;;;;;5116470;28;20203;-58
2022/04/24 01:10:03;;;;;;;21.95;17.33;;;11.90;75.30;;;;;;5116855;28;20206;-58
2022/04/24 01:12:29;;;;;;;20.00;16.73;;;12.00;75.10;;;;;;5116539;28;20295;-58
2022/04/24 01:14:56;;;;;;;21.65;17.23;;;12.10;75.10;;;;;;5115367;28;20206;-59
2022/04/24 01:17:25;;;;;;;21.38;16.50;;;12.10;75.20;;;;;;5116588;28;20312;-59
2022/04/24 01:19:54;;;;;;;21.00;16.80;;;12.10;75.50;;;;;;5116485;28;20721;-58
2022/04/24 01:22:22;;;;;;;22.08;17.45;;;11.90;75.60;;;;;;5116261;28;20624;-59
2022/04/24 01:24:49;;;;;;;19.25;16.42;;;12.00;75.50;;;;;;5116215;28;20237;-58
2022/04/24 01:27:16;;;;;;;20.50;15.82;;;12.00;75.30;;;;;;5116394;28;20629;-58
2022/04/24 01:29:42;;;;;;;19.75;16.52;;;12.10;75.10;;;;;;5116021;28;20195;-58
2022/04/24 01:32:10;;;;;;;18.15;15.82;;;12.10;75.10;;;;;;5115891;28;20243;-59
2022/04/24 01:34:36;;;;;;;20.98;16.23;;;11.90;75.60;;;;;;5116147;28;20624;-58
2022/04/24 01:37:04;;;;;;;20.27;16.70;;;11.90;75.80;;;;;;5116016;28;20210;-59
2022/04/24 01:39:32;;;;;;;17.83;15.63;;;11.90;75.60;;;;;;5116157;28;20544;-58
2022/04/24 01:41:59;;;;;;;20.90;16.63;;;12.00;75.50;;;;;;5116079;28;20200;-58
2022/04/24 01:44:26;;;;;;;21.67;16.45;;;12.00;75.70;;;;;;5115950;28;20258;-58
2022/04/24 01:46:53;;;;;;;25.13;18.77;;;12.10;75.50;;;;;;5114639;28;20203;-59
2022/04/24 01:49:20;;;;;;;17.50;15.35;;;12.10;75.50;;;;;;5115903;28;20230;-59
2022/04/24 01:51:48;;;;;;;18.20;15.68;;;12.20;75.20;;;;;;5115841;28;20214;-58
2022/04/24 01:54:15;;;;;;;21.02;16.10;;;12.10;75.20;;;;;;5115887;28;20207;-58
2022/04/24 01:56:44;;;;;;;21.02;16.05;;;12.10;75.30;;;;;;5115810;28;20202;-59
2022/04/24 01:59:11;;;;;;;19.05;15.65;;;12.00;75.60;;;;;;5115762;28;20196;-59
2022/04/24 02:01:38;;;;;;;19.95;17.25;;;11.80;75.80;;;;;;5114383;28;20297;-59
2022/04/24 02:04:05;;;;;;;19.17;16.13;;;11.60;76.20;;;;;;5115435;28;20263;-58
2022/04/24 02:06:32;;;;;;;19.42;16.38;;;11.50;76.50;;;;;;5115457;28;20210;-58
2022/04/24 02:08:59;;;;;;;18.38;15.90;;;11.60;76.50;;;;;;5115509;28;20203;-58
2022/04/24 02:11:25;;;;;;;21.30;16.70;;;11.70;76.30;;;;;;5115645;28;20237;-59
2022/04/24 02:13:54;;;;;;;21.27;16.58;;;11.80;76.10;;;;;;5115064;28;20638;-59
2022/04/24 02:16:21;;;;;;;18.98;14.93;;;11.90;75.80;;;;;;5114065;28;20283;-59
2022/04/24 02:18:48;;;;;;;20.38;15.95;;;12.10;75.60;;;;;;5115438;28;20210;-58
2022/04/24 02:21:15;;;;;;;18.98;15.07;;;12.10;75.70;;;;;;5115202;28;20294;-59
2022/04/24 02:23:42;;;;;;;19.33;15.40;;;12.20;75.70;;;;;;5115186;28;20206;-58
2022/04/24 02:26:09;;;;;;;20.20;16.45;;;12.20;75.60;;;;;;5115216;28;20631;-59
2022/04/24 02:28:36;;;;;;;21.05;15.45;;;12.30;75.50;;;;;;5115133;28;20211;-58
2022/04/24 02:31:04;;;;;;;23.50;18.13;;;12.40;75.20;;;;;;5113558;28;20210;-58
2022/04/24 02:33:31;;;;;;;21.48;16.75;;;12.40;74.80;;;;;;5115007;28;20621;-58
2022/04/24 02:35:58;;;;;;;20.20;17.05;;;12.50;74.40;;;;;;5115085;28;20226;-58
2022/04/24 02:38:25;;;;;;;21.75;16.73;;;12.40;74.60;;;;;;5114920;28;20566;-58
2022/04/24 02:40:52;;;;;;;23.60;17.55;;;12.10;75.60;;;;;;5114913;28;20670;-58
2022/04/24 02:43:18;;;;;;;21.50;17.00;;;11.80;77.10;;;;;;5114742;28;20203;-58
2022/04/24 02:45:46;;;;;;;21.50;16.00;;;11.70;77.50;;;;;;5113595;28;20230;-58
2022/04/24 02:48:15;;;;;;;23.63;17.08;;;11.40;78.70;;;;;;5114617;28;20241;-58
2022/04/24 02:50:41;;;;;;;21.13;16.80;;;11.40;78.50;;;;;;5114790;28;20205;-58
2022/04/24 02:53:09;;;;;;;23.48;17.73;;;11.60;78.20;;;;;;5114677;28;20218;-59
2022/04/24 02:55:36;;;;;;;24.90;17.42;;;11.80;77.80;;;;;;5114655;28;20210;-58
2022/04/24 02:58:03;;;;;;;22.27;17.20;;;11.80;78.10;;;;;;5114530;28;20238;-58
2022/04/24 03:00:39;;;;;;;22.08;17.30;;;11.90;77.80;;;;;;5113277;28;20295;-58
2022/04/24 03:03:07;;;;;;;26.15;17.60;;;12.00;77.40;;;;;;5114365;28;20713;-58
2022/04/24 03:05:36;;;;;;;25.58;18.50;;;12.10;76.80;;;;;;5114324;28;20223;-58
2022/04/24 03:08:03;;;;;;;22.27;16.80;;;12.20;76.80;;;;;;5114220;28;20207;-58
2022/04/24 03:10:30;;;;;;;21.67;16.20;;;12.20;76.70;;;;;;5114231;28;20227;-58
2022/04/24 03:12:57;;;;;;;21.13;16.55;;;12.10;77.30;;;;;;5114396;28;20210;-58
2022/04/24 03:15:24;;;;;;;22.05;16.45;;;12.10;77.80;;;;;;5112963;28;20203;-58
2022/04/24 03:17:54;;;;;;;22.27;16.50;;;12.10;77.50;;;;;;5114194;28;20293;-58
2022/04/24 03:20:21;;;;;;;21.88;16.98;;;12.10;77.20;;;;;;5114257;28;20203;-58
2022/04/24 03:22:50;;;;;;;22.67;16.20;;;12.20;77.20;;;;;;5113957;28;20203;-58
2022/04/24 03:25:17;;;;;;;23.52;15.85;;;12.20;77.50;;;;;;5113249;28;20238;-57
2022/04/24 03:27:43;;;;;;;22.80;16.52;;;12.10;77.50;;;;;;5114121;28;20199;-58
2022/04/24 03:30:12;;;;;;;21.33;16.45;;;12.10;78.00;;;;;;5112625;28;20206;-57
2022/04/24 03:32:39;;;;;;;20.85;15.98;;;12.00;78.40;;;;;;5113805;28;20203;-58
2022/04/24 03:35:09;;;;;;;21.90;16.25;;;12.00;78.90;;;;;;5113903;28;20284;-57
2022/04/24 03:37:36;;;;;;;24.30;18.08;;;11.90;79.10;;;;;;5113813;28;20202;-58
2022/04/24 03:40:07;;;;;;;22.30;16.83;;;11.80;79.70;;;;;;5113828;28;20206;-58
2022/04/24 03:42:35;;;;;;;23.77;17.02;;;11.80;79.30;;;;;;5113770;28;20199;-57
2022/04/24 03:45:04;;;;;;;22.67;16.75;;;11.80;79.70;;;;;;5112412;28;21130;-58
2022/04/24 03:47:31;;;;;;;24.58;17.92;;;11.80;79.70;;;;;;5113715;28;20240;-57
2022/04/24 03:49:57;;;;;;;22.73;16.15;;;11.80;79.70;;;;;;5113558;28;20226;-57
2022/04/24 03:52:24;;;;;;;23.75;16.15;;;11.90;79.60;;;;;;5113227;28;20595;-57
2022/04/24 03:54:51;;;;;;;25.05;17.08;;;12.00;79.20;;;;;;5113571;28;20287;-57
2022/04/24 03:57:19;;;;;;;27.15;17.75;;;12.10;79.00;;;;;;5113534;28;20203;-57
2022/04/24 03:59:46;;;;;;;24.13;17.58;;;12.20;78.80;;;;;;5112610;28;20207;-58
2022/04/24 04:02:13;;;;;;;23.98;17.10;;;12.20;78.60;;;;;;5113384;28;20210;-57
2022/04/24 04:04:40;;;;;;;24.05;17.40;;;12.30;78.10;;;;;;5112969;28;20321;-57
2022/04/24 04:07:07;;;;;;;24.33;17.75;;;12.30;77.90;;;;;;5113256;28;20204;-58
2022/04/24 04:09:34;;;;;;;22.92;16.80;;;12.30;78.20;;;;;;5113390;28;20207;-58
2022/04/24 04:12:01;;;;;;;21.70;16.02;;;12.30;78.10;;;;;;5113429;28;20564;-58
2022/04/24 04:14:29;;;;;;;25.02;16.70;;;12.30;78.00;;;;;;5113300;28;20212;-58
2022/04/24 04:16:56;;;;;;;24.45;16.17;;;12.20;78.80;;;;;;5112064;28;20290;-58
2022/04/24 04:19:23;;;;;;;23.70;18.00;;;12.20;79.00;;;;;;5113273;28;20212;-58
2022/04/24 04:21:50;;;;;;;22.95;16.33;;;12.10;79.60;;;;;;5113110;28;20663;-58
2022/04/24 04:24:17;;;;;;;23.02;18.05;;;12.00;80.20;;;;;;5113275;28;20539;-59
2022/04/24 04:26:44;;;;;;;25.60;18.00;;;11.80;81.10;;;;;;5113352;28;20210;-59
2022/04/24 04:29:11;;;;;;;22.10;17.40;;;11.60;82.10;;;;;;5113235;28;20199;-59
2022/04/24 04:31:39;;;;;;;32.60;21.42;;;11.40;83.50;;;;;;5111758;28;20252;-60
2022/04/24 04:34:06;;;;;;;31.33;24.98;;;11.00;85.20;;;;;;5112965;28;20930;-56
2022/04/24 04:36:33;;;;;;;37.15;30.58;;;10.60;86.00;;;;;;5114490;28;20215;-57
2022/04/24 04:42:15;;;;;;;22.75;20.40;;;9.50;90.70;;;;;;5123327;27;20923;-58
2022/04/24 04:47:05;;;;;;;15.20;14.00;;;8.60;91.50;;;;;;5166852;27;20884;-57
